Time;durP1;ratioP1;P1;durP2;ratioP2;P2;SDS_P1;SDS_P2;PMS_P1;PMS_P2;Temp;Humidity;BMP_temperature;BMP_pressure;BME280_temperature;BME280_humidity;BME280_pressure;Samples;Min_cycle;Max_cycle;Signal;HPM_P1;HPM_P2
2023/03/27 00:00:59;;;;;;;7.07;2.30;;;4.40;99.90;;;;;;5050860;28;20520;-72
2023/03/27 00:03:28;;;;;;;1.10;0.80;;;4.40;99.90;;;;;;5051023;28;20448;-71
2023/03/27 00:06:01;;;;;;;2.40;1.03;;;4.30;99.90;;;;;;5051683;28;20422;-72
2023/03/27 00:08:30;;;;;;;2.50;1.70;;;4.30;99.90;;;;;;5053024;28;20450;-73
2023/03/27 00:10:59;;;;;;;1.10;1.00;;;4.20;99.90;;;;;;5062131;28;20415;-73
2023/03/27 00:13:28;;;;;;;4.17;1.37;;;4.20;99.90;;;;;;5052189;28;20426;-72
2023/03/27 00:15:57;;;;;;;3.93;1.57;;;4.20;99.90;;;;;;5050254;28;20497;-72
2023/03/27 00:18:24;;;;;;;3.10;0.90;;;4.10;99.90;;;;;;5050845;28;20860;-72
2023/03/27 00:20:52;;;;;;;0.97;0.77;;;4.20;99.90;;;;;;5050498;28;20457;-73
2023/03/27 00:23:21;;;;;;;9.77;1.37;;;4.10;99.90;;;;;;5050189;28;20507;-72
2023/03/27 00:25:48;;;;;;;2.87;1.30;;;4.10;99.90;;;;;;5050023;28;21037;-73
2023/03/27 00:28:15;;;;;;;5.30;1.10;;;4.00;99.90;;;;;;5050457;28;20693;-73
2023/03/27 00:30:45;;;;;;;9.30;1.47;;;4.00;99.90;;;;;;5050627;28;20498;-73
2023/03/27 00:33:13;;;;;;;2.20;1.10;;;4.00;99.90;;;;;;5050516;28;20787;-73
2023/03/27 00:35:45;;;;;;;2.80;1.47;;;4.00;99.90;;;;;;5050383;28;20479;-73
2023/03/27 00:38:12;;;;;;;8.83;1.30;;;4.00;99.90;;;;;;5055637;28;20489;-73
2023/03/27 00:40:39;;;;;;;2.43;1.23;;;3.90;99.90;;;;;;5061572;28;20486;-73
2023/03/27 00:43:22;;;;;;;3.73;1.10;;;3.90;99.90;;;;;;5050242;28;20439;-73
2023/03/27 00:45:55;;;;;;;5.00;1.73;;;3.90;99.90;;;;;;5051012;28;20424;-73
2023/03/27 00:48:24;;;;;;;2.50;1.20;;;3.80;99.90;;;;;;5051819;28;20482;-73
2023/03/27 00:50:51;;;;;;;1.83;1.70;;;3.80;99.90;;;;;;5049879;28;20535;-73
2023/03/27 00:53:24;;;;;;;1.40;1.20;;;3.80;99.90;;;;;;5050297;28;20426;-73
2023/03/27 00:55:54;;;;;;;3.33;1.73;;;3.80;99.90;;;;;;5053803;28;20414;-73
2023/03/27 00:58:26;;;;;;;1.57;1.03;;;3.80;99.90;;;;;;5053544;28;20481;-73
2023/03/27 01:00:56;;;;;;;1.50;1.40;;;3.80;99.90;;;;;;5053799;28;20485;-73
2023/03/27 01:03:26;;;;;;;13.83;2.70;;;3.70;99.90;;;;;;5053642;28;20425;-74
2023/03/27 01:05:54;;;;;;;1.87;1.53;;;3.60;99.90;;;;;;5053424;28;20535;-74
2023/03/27 01:08:23;;;;;;;4.37;1.63;;;3.70;99.90;;;;;;5053844;28;20441;-71
2023/03/27 01:11:02;;;;;;;4.00;1.10;;;3.70;99.90;;;;;;5053922;28;20456;-71
2023/03/27 01:13:44;;;;;;;1.03;0.93;;;3.60;99.90;;;;;;5059484;28;20403;-72
2023/03/27 01:16:19;;;;;;;4.67;1.57;;;3.50;99.90;;;;;;5070867;28;20457;-72
2023/03/27 01:18:58;;;;;;;5.17;1.40;;;3.50;99.90;;;;;;5056322;28;20420;-73
2023/03/27 01:21:55;;;;;;;1.37;1.27;;;3.50;99.90;;;;;;5053710;28;20786;-72
2023/03/27 01:24:58;;;;;;;0.90;0.70;;;3.60;99.90;;;;;;5047381;28;20465;-73
2023/03/27 01:27:52;;;;;;;4.93;1.47;;;3.50;99.90;;;;;;5053788;28;20467;-71
2023/03/27 01:30:26;;;;;;;5.20;2.27;;;3.40;99.90;;;;;;5053882;28;20535;-72
2023/03/27 01:33:24;;;;;;;3.57;1.60;;;3.50;99.90;;;;;;5057092;28;20415;-72
2023/03/27 01:36:17;;;;;;;12.23;1.33;;;3.50;99.90;;;;;;5059625;28;20487;-72
2023/03/27 01:39:17;;;;;;;3.37;1.40;;;3.40;99.90;;;;;;5053069;28;21006;-72
2023/03/27 01:41:52;;;;;;;2.70;1.50;;;3.40;99.90;;;;;;5049642;28;20523;-72
2023/03/27 01:44:27;;;;;;;1.77;1.40;;;3.40;99.90;;;;;;5054720;28;20493;-72
2023/03/27 01:46:59;;;;;;;4.00;1.50;;;3.30;99.90;;;;;;5053355;28;20481;-72
2023/03/27 01:49:31;;;;;;;15.57;2.37;;;3.20;99.90;;;;;;5053226;28;20406;-72
2023/03/27 01:52:01;;;;;;;2.00;1.63;;;3.30;99.90;;;;;;5058577;28;20441;-72
2023/03/27 01:54:32;;;;;;;4.57;1.40;;;3.30;99.90;;;;;;5053082;28;20455;-72
2023/03/27 01:57:07;;;;;;;2.07;1.20;;;3.30;99.90;;;;;;5052500;28;20454;-72
2023/03/27 01:59:38;;;;;;;1.93;1.33;;;3.30;99.90;;;;;;5052824;28;20485;-72
2023/03/27 02:02:10;;;;;;;6.93;1.43;;;3.30;99.90;;;;;;5052781;28;20516;-72
2023/03/27 02:04:43;;;;;;;24.63;2.50;;;3.30;99.90;;;;;;5052190;28;20601;-72
2023/03/27 02:07:14;;;;;;;2.80;1.23;;;3.20;99.90;;;;;;5052239;28;20437;-72
2023/03/27 02:09:46;;;;;;;4.13;1.23;;;3.20;99.90;;;;;;5052301;28;20442;-72
2023/03/27 02:12:18;;;;;;;4.63;1.53;;;3.10;99.90;;;;;;5052402;28;20490;-72
2023/03/27 02:14:51;;;;;;;5.43;1.23;;;3.10;99.90;;;;;;5052542;28;20792;-72
2023/03/27 02:17:20;;;;;;;2.80;1.20;;;3.20;99.90;;;;;;5051096;28;20576;-72
2023/03/27 02:19:51;;;;;;;3.70;1.10;;;3.20;99.90;;;;;;5052156;28;20425;-72
2023/03/27 02:22:19;;;;;;;26.77;2.07;;;3.20;99.90;;;;;;5053057;28;20472;-72
2023/03/27 02:24:47;;;;;;;3.03;1.90;;;3.30;99.90;;;;;;5052340;28;20981;-72
2023/03/27 02:27:24;;;;;;;2.23;1.43;;;3.20;99.90;;;;;;5056907;28;21020;-72
2023/03/27 02:30:03;;;;;;;1.33;1.23;;;3.20;99.90;;;;;;5065047;28;20395;-72
2023/03/27 02:32:44;;;;;;;1.33;1.17;;;3.20;99.90;;;;;;5052483;28;20501;-73
2023/03/27 02:35:26;;;;;;;13.83;1.10;;;3.20;99.90;;;;;;5058005;28;20407;-73
2023/03/27 02:38:03;;;;;;;4.40;2.00;;;3.10;99.90;;;;;;5062234;28;20458;-72
2023/03/27 02:40:40;;;;;;;3.37;1.47;;;3.20;99.90;;;;;;5051982;28;21022;-72
2023/03/27 02:43:13;;;;;;;1.57;1.07;;;3.10;99.90;;;;;;5051884;28;20987;-72
2023/03/27 02:45:47;;;;;;;11.73;1.73;;;3.10;99.90;;;;;;5052588;28;20519;-72
2023/03/27 02:48:19;;;;;;;1.50;1.20;;;3.10;99.90;;;;;;5066820;28;20433;-72
2023/03/27 02:50:50;;;;;;;1.20;1.10;;;3.10;99.90;;;;;;5052996;28;20456;-72
2023/03/27 02:53:21;;;;;;;1.73;1.50;;;3.10;99.90;;;;;;5051914;28;20407;-72
2023/03/27 02:55:53;;;;;;;1.43;1.00;;;3.00;99.90;;;;;;5051921;28;20402;-71
2023/03/27 02:58:29;;;;;;;3.73;1.17;;;3.00;99.90;;;;;;5051560;28;20449;-72
2023/03/27 03:00:58;;;;;;;1.77;1.43;;;3.00;99.90;;;;;;5051260;28;20458;-71
2023/03/27 03:03:32;;;;;;;1.50;1.10;;;3.00;99.90;;;;;;5051485;28;20418;-72
2023/03/27 03:06:03;;;;;;;2.50;2.30;;;2.90;99.90;;;;;;5051457;28;20532;-73
2023/03/27 03:08:30;;;;;;;2.33;2.13;;;3.00;99.90;;;;;;5051531;28;20399;-72
2023/03/27 03:11:03;;;;;;;1.73;1.23;;;2.90;99.90;;;;;;5051532;28;20410;-72
2023/03/27 03:13:31;;;;;;;5.00;1.90;;;3.10;99.90;;;;;;5051286;28;20977;-71
2023/03/27 03:15:58;;;;;;;4.87;2.50;;;3.00;99.90;;;;;;5051759;28;20474;-72
2023/03/27 03:18:26;;;;;;;2.50;1.83;;;3.00;99.90;;;;;;5052039;28;20561;-71
2023/03/27 03:20:53;;;;;;;2.37;1.33;;;2.90;99.90;;;;;;5057823;28;20892;-72
2023/03/27 03:23:21;;;;;;;4.30;1.47;;;2.90;99.90;;;;;;5068502;28;20395;-72
2023/03/27 03:25:51;;;;;;;4.10;1.77;;;3.00;99.90;;;;;;5061665;28;20429;-72
2023/03/27 03:28:18;;;;;;;1.57;1.17;;;2.90;99.90;;;;;;5051738;28;20415;-72
2023/03/27 03:30:50;;;;;;;2.23;1.67;;;2.90;99.90;;;;;;5052907;28;20446;-71
2023/03/27 03:33:20;;;;;;;1.93;1.73;;;2.90;99.90;;;;;;5063768;28;21227;-71
2023/03/27 03:35:47;;;;;;;3.10;1.50;;;2.90;99.90;;;;;;5051414;28;20508;-71
2023/03/27 03:38:23;;;;;;;1.43;1.30;;;2.90;99.90;;;;;;5050940;28;20851;-72
2023/03/27 03:40:51;;;;;;;2.23;1.40;;;2.80;99.90;;;;;;5050720;28;20495;-71
2023/03/27 03:43:18;;;;;;;3.30;2.33;;;2.90;99.90;;;;;;5050991;28;20454;-72
2023/03/27 03:45:45;;;;;;;3.37;1.47;;;2.80;99.90;;;;;;5051356;28;20518;-72
2023/03/27 03:48:13;;;;;;;3.47;1.80;;;2.80;99.90;;;;;;5060347;28;20464;-72
2023/03/27 03:50:40;;;;;;;1.60;1.30;;;2.60;99.90;;;;;;5053680;28;20523;-71
2023/03/27 03:53:07;;;;;;;13.17;2.33;;;2.60;99.90;;;;;;5050747;28;20426;-71
2023/03/27 03:55:34;;;;;;;5.00;1.50;;;2.70;99.90;;;;;;5051046;28;20426;-72
2023/03/27 03:58:01;;;;;;;3.80;1.70;;;2.70;99.90;;;;;;5050672;28;20546;-72
2023/03/27 04:00:28;;;;;;;2.53;1.90;;;2.60;99.90;;;;;;5055924;28;20522;-72
2023/03/27 04:02:55;;;;;;;2.40;1.77;;;2.60;99.90;;;;;;5050296;28;20870;-72
2023/03/27 04:05:23;;;;;;;1.63;1.50;;;2.50;99.90;;;;;;5050781;28;20459;-72
2023/03/27 04:07:50;;;;;;;1.43;1.30;;;2.50;99.90;;;;;;5050507;28;20490;-72
2023/03/27 04:10:17;;;;;;;1.60;1.30;;;2.50;99.90;;;;;;5050697;28;20884;-72
2023/03/27 04:12:48;;;;;;;1.90;1.70;;;2.50;99.90;;;;;;5050673;28;20531;-72
2023/03/27 04:15:15;;;;;;;1.30;1.20;;;2.40;99.90;;;;;;5034169;28;20460;-72
2023/03/27 04:17:42;;;;;;;10.10;2.10;;;2.30;99.90;;;;;;5070106;28;20464;-73
2023/03/27 04:20:11;;;;;;;4.50;2.17;;;2.40;99.90;;;;;;5054829;28;20642;-72
2023/03/27 04:22:45;;;;;;;2.13;1.77;;;2.30;99.90;;;;;;5050742;28;20425;-72
2023/03/27 04:25:13;;;;;;;3.37;1.53;;;2.30;99.90;;;;;;5050436;28;20424;-72
2023/03/27 04:27:42;;;;;;;3.77;1.40;;;2.40;99.90;;;;;;5050078;28;20492;-72
2023/03/27 04:30:14;;;;;;;2.80;1.33;;;2.40;99.90;;;;;;5053752;28;20554;-72
2023/03/27 04:32:41;;;;;;;3.43;1.40;;;2.40;99.90;;;;;;5054209;28;20406;-73
2023/03/27 04:35:10;;;;;;;1.83;1.23;;;2.40;99.90;;;;;;5054388;28;20845;-72
2023/03/27 04:37:41;;;;;;;5.20;2.00;;;2.40;99.90;;;;;;5054007;28;20458;-72
2023/03/27 04:40:12;;;;;;;2.03;1.20;;;2.40;99.90;;;;;;5054156;28;20455;-72
2023/03/27 04:42:41;;;;;;;4.77;1.80;;;2.40;99.90;;;;;;5054083;28;20467;-72
2023/03/27 04:45:12;;;;;;;2.00;1.30;;;2.40;99.90;;;;;;5053931;28;20517;-72
2023/03/27 04:47:39;;;;;;;3.20;2.03;;;2.50;99.90;;;;;;5054354;28;20831;-72
2023/03/27 04:50:09;;;;;;;10.03;2.43;;;2.40;99.90;;;;;;5053955;28;20482;-72
2023/03/27 04:52:36;;;;;;;2.73;1.63;;;2.30;99.90;;;;;;5054125;28;20429;-72
2023/03/27 04:55:06;;;;;;;2.37;1.40;;;2.30;99.90;;;;;;5054348;28;20486;-72
2023/03/27 04:57:34;;;;;;;5.23;1.33;;;2.40;99.90;;;;;;5056609;28;20772;-72
2023/03/27 05:00:10;;;;;;;3.43;2.30;;;2.30;99.90;;;;;;5058922;28;20445;-72
2023/03/27 05:02:37;;;;;;;3.70;1.40;;;2.30;99.90;;;;;;5058785;28;20398;-72
2023/03/27 05:05:07;;;;;;;1.40;1.30;;;2.40;99.90;;;;;;5053428;28;20455;-72
2023/03/27 05:07:35;;;;;;;7.77;1.70;;;2.40;99.90;;;;;;5053718;28;20499;-72
2023/03/27 05:10:02;;;;;;;4.63;2.50;;;2.40;99.90;;;;;;5054023;28;20448;-72
2023/03/27 05:12:31;;;;;;;1.77;1.67;;;2.30;99.90;;;;;;5065112;28;20913;-72
2023/03/27 05:14:58;;;;;;;4.30;2.40;;;2.40;99.90;;;;;;5053985;28;20418;-72
2023/03/27 05:17:25;;;;;;;2.90;1.87;;;2.30;99.90;;;;;;5053102;28;20521;-72
2023/03/27 05:19:52;;;;;;;3.87;3.53;;;2.30;99.90;;;;;;5054345;28;20910;-72
2023/03/27 05:22:19;;;;;;;1.70;1.60;;;2.30;99.90;;;;;;5054268;28;20522;-72
2023/03/27 05:24:46;;;;;;;2.93;1.43;;;2.30;99.90;;;;;;5056310;28;20453;-72
2023/03/27 05:27:14;;;;;;;1.50;1.40;;;2.30;99.90;;;;;;5054008;28;20525;-72
2023/03/27 05:29:42;;;;;;;7.57;1.97;;;2.30;99.90;;;;;;5067921;28;20446;-73
2023/03/27 05:32:09;;;;;;;3.20;1.83;;;2.50;99.90;;;;;;5056336;28;20519;-72
2023/03/27 05:34:37;;;;;;;3.67;2.33;;;2.70;99.90;;;;;;5053243;28;20509;-72
2023/03/27 05:37:05;;;;;;;1.37;1.27;;;2.80;99.90;;;;;;5053125;28;20471;-72
2023/03/27 05:39:32;;;;;;;1.43;1.33;;;2.90;99.90;;;;;;5053856;28;20475;-72
2023/03/27 05:42:00;;;;;;;9.20;3.13;;;2.90;99.90;;;;;;5052239;28;20495;-72
2023/03/27 05:44:27;;;;;;;2.40;1.27;;;3.00;99.90;;;;;;5053290;28;20525;-72
2023/03/27 05:46:55;;;;;;;3.40;1.73;;;3.10;99.90;;;;;;5053003;28;20528;-72
2023/03/27 05:49:22;;;;;;;7.23;2.10;;;3.20;99.90;;;;;;5052865;28;20444;-72
2023/03/27 05:51:49;;;;;;;2.43;1.70;;;3.30;99.90;;;;;;5054185;28;20448;-72
2023/03/27 05:54:17;;;;;;;2.07;1.87;;;3.30;99.90;;;;;;5053172;28;20433;-72
2023/03/27 05:56:44;;;;;;;2.80;1.73;;;3.50;99.90;;;;;;5052976;28;20820;-72
2023/03/27 05:59:11;;;;;;;1.53;1.30;;;3.50;99.90;;;;;;5052667;28;20450;-72
2023/03/27 06:01:39;;;;;;;2.17;1.53;;;3.70;99.90;;;;;;5052986;28;20474;-71
2023/03/27 06:04:07;;;;;;;1.50;0.97;;;3.80;99.90;;;;;;5053325;28;20476;-71
2023/03/27 06:06:35;;;;;;;10.40;2.60;;;4.00;99.90;;;;;;5059973;28;20551;-72
2023/03/27 06:09:02;;;;;;;1.20;1.10;;;4.20;99.90;;;;;;5053754;28;20838;-72
2023/03/27 06:11:30;;;;;;;1.73;1.17;;;4.50;99.90;;;;;;5054074;28;20434;-72
2023/03/27 06:13:57;;;;;;;2.93;1.43;;;4.40;99.90;;;;;;5063343;28;20426;-72
2023/03/27 06:16:24;;;;;;;3.10;1.87;;;4.30;99.90;;;;;;5052602;28;20468;-72
2023/03/27 06:18:51;;;;;;;6.43;1.43;;;4.30;99.90;;;;;;5052424;28;20489;-72
2023/03/27 06:21:20;;;;;;;1.47;1.20;;;4.20;99.90;;;;;;5052541;28;20838;-72
2023/03/27 06:23:48;;;;;;;3.87;1.20;;;4.00;99.90;;;;;;5052628;28;20443;-72
2023/03/27 06:26:15;;;;;;;1.13;0.90;;;3.80;99.90;;;;;;5052215;28;20446;-73
2023/03/27 06:28:43;;;;;;;1.43;1.00;;;3.80;99.90;;;;;;5053687;28;20483;-71
2023/03/27 06:31:10;;;;;;;1.20;1.10;;;3.80;99.90;;;;;;5052371;28;20537;-72
2023/03/27 06:33:39;;;;;;;3.57;1.77;;;3.80;99.90;;;;;;5052845;28;20469;-72
2023/03/27 06:36:07;;;;;;;2.70;1.20;;;3.70;99.90;;;;;;5053778;28;20447;-72
2023/03/27 06:38:36;;;;;;;1.33;1.20;;;3.60;99.90;;;;;;5051816;28;20454;-73
2023/03/27 06:41:05;;;;;;;0.90;0.70;;;3.80;99.90;;;;;;5051895;28;20532;-72
2023/03/27 06:43:32;;;;;;;5.37;1.37;;;4.00;99.90;;;;;;5052027;28;20515;-72
2023/03/27 06:45:59;;;;;;;1.73;1.30;;;4.20;99.90;;;;;;5051933;28;20480;-73
2023/03/27 06:48:27;;;;;;;4.80;1.30;;;4.50;99.90;;;;;;5052235;28;20476;-72
2023/03/27 06:50:54;;;;;;;1.03;0.93;;;4.80;99.90;;;;;;5052136;28;20422;-72
2023/03/27 06:53:22;;;;;;;1.73;1.63;;;5.10;99.90;;;;;;5051355;28;20943;-72
2023/03/27 06:55:50;;;;;;;3.10;1.50;;;5.20;99.90;;;;;;5051554;28;20557;-73
2023/03/27 06:58:18;;;;;;;2.03;1.30;;;5.30;99.90;;;;;;5052133;28;20765;-72
2023/03/27 07:00:47;;;;;;;4.53;1.10;;;5.70;99.90;;;;;;5063036;28;20768;-72
2023/03/27 07:03:14;;;;;;;7.70;1.13;;;5.90;99.90;;;;;;5056420;28;20444;-72
2023/03/27 07:05:42;;;;;;;2.17;1.37;;;6.00;99.90;;;;;;5051622;28;20501;-72
2023/03/27 07:08:14;;;;;;;2.43;1.50;;;6.20;99.90;;;;;;5051210;28;20467;-72
2023/03/27 07:10:41;;;;;;;4.20;2.00;;;6.40;99.90;;;;;;5051360;28;20426;-72
2023/03/27 07:13:09;;;;;;;3.63;2.63;;;6.80;99.90;;;;;;5051229;28;20517;-72
2023/03/27 07:15:36;;;;;;;2.10;1.53;;;6.60;99.90;;;;;;5051044;28;20434;-72
2023/03/27 07:18:06;;;;;;;2.80;1.20;;;6.60;99.90;;;;;;5051008;28;20550;-72
2023/03/27 07:20:34;;;;;;;1.97;1.40;;;6.60;99.90;;;;;;5051235;28;20469;-72
2023/03/27 07:23:02;;;;;;;1.63;1.13;;;6.70;99.90;;;;;;5051359;28;20455;-72
2023/03/27 07:25:35;;;;;;;1.70;1.47;;;6.70;99.90;;;;;;5057117;28;20917;-72
2023/03/27 07:28:04;;;;;;;2.57;1.50;;;6.70;99.90;;;;;;5062640;28;20966;-73
2023/03/27 07:30:32;;;;;;;4.30;1.20;;;6.60;99.90;;;;;;5051417;28;20500;-72
2023/03/27 07:33:00;;;;;;;2.90;1.33;;;6.50;99.90;;;;;;5051173;28;20449;-73
2023/03/27 07:35:27;;;;;;;1.50;1.00;;;6.30;99.90;;;;;;5051114;28;20492;-72
2023/03/27 07:37:55;;;;;;;3.33;1.57;;;6.20;99.90;;;;;;5050487;28;20525;-72
2023/03/27 07:40:22;;;;;;;1.00;0.70;;;5.90;99.90;;;;;;5050413;28;20566;-73
2023/03/27 07:42:50;;;;;;;1.13;1.00;;;5.90;99.90;;;;;;5050742;28;20534;-72
2023/03/27 07:45:18;;;;;;;1.63;1.07;;;6.20;99.90;;;;;;5050529;28;20452;-73
2023/03/27 07:47:47;;;;;;;2.80;1.20;;;6.50;99.90;;;;;;5050403;28;21210;-73
2023/03/27 07:50:17;;;;;;;1.20;1.10;;;6.80;99.90;;;;;;5050843;28;20434;-73
2023/03/27 07:52:45;;;;;;;1.10;0.87;;;7.10;99.90;;;;;;5051498;28;20499;-72
2023/03/27 07:55:16;;;;;;;2.93;1.13;;;7.20;99.90;;;;;;5063715;28;20450;-72
2023/03/27 07:57:47;;;;;;;0.90;0.70;;;7.20;99.90;;;;;;5051367;28;20526;-72
2023/03/27 08:00:16;;;;;;;1.00;0.90;;;7.20;99.90;;;;;;5050350;28;20483;-72
2023/03/27 08:02:44;;;;;;;2.00;1.13;;;7.40;99.90;;;;;;5050741;28;20438;-72
2023/03/27 08:05:13;;;;;;;1.37;0.80;;;7.50;99.90;;;;;;5050530;28;20490;-72
2023/03/27 08:07:41;;;;;;;5.73;1.20;;;7.80;99.90;;;;;;5050847;28;20463;-72
2023/03/27 08:10:10;;;;;;;1.77;1.40;;;7.80;99.90;;;;;;5052118;28;20470;-72
2023/03/27 08:12:37;;;;;;;2.40;0.90;;;8.10;99.90;;;;;;5053488;28;20542;-72
2023/03/27 08:15:05;;;;;;;1.70;1.33;;;8.20;99.90;;;;;;5050664;28;20546;-72
2023/03/27 08:17:34;;;;;;;0.97;0.60;;;8.20;99.90;;;;;;5050334;28;20463;-72
2023/03/27 08:20:07;;;;;;;2.93;1.70;;;8.90;99.90;;;;;;5050817;28;20578;-72
2023/03/27 08:22:37;;;;;;;4.13;1.00;;;9.30;99.90;;;;;;5050149;28;20411;-72
2023/03/27 08:25:05;;;;;;;1.20;0.90;;;9.80;99.90;;;;;;5050602;28;20542;-73
2023/03/27 08:27:32;;;;;;;1.57;1.03;;;10.30;99.90;;;;;;5050565;28;20471;-72
2023/03/27 08:29:59;;;;;;;2.90;1.03;;;10.40;99.90;;;;;;5050255;28;20959;-72
2023/03/27 08:32:26;;;;;;;1.70;0.93;;;10.70;99.90;;;;;;5050781;28;20444;-72
2023/03/27 08:34:54;;;;;;;1.77;1.03;;;11.30;99.90;;;;;;5050255;28;20423;-72
2023/03/27 08:37:21;;;;;;;1.43;1.07;;;11.50;99.90;;;;;;5058269;28;20460;-72
2023/03/27 08:39:49;;;;;;;2.10;1.53;;;11.60;99.90;;;;;;5054065;28;20526;-72
2023/03/27 08:42:20;;;;;;;2.90;1.50;;;11.60;99.90;;;;;;5050379;28;20483;-72
2023/03/27 08:44:51;;;;;;;7.23;1.20;;;11.90;99.90;;;;;;5050686;28;20440;-72
2023/03/27 08:47:24;;;;;;;1.20;0.90;;;11.80;99.90;;;;;;5057212;28;20451;-72
2023/03/27 08:49:56;;;;;;;1.20;0.73;;;11.80;99.90;;;;;;5058551;28;20908;-72
2023/03/27 08:52:26;;;;;;;1.00;0.70;;;11.80;99.90;;;;;;5049910;28;20432;-72
2023/03/27 08:54:59;;;;;;;2.30;1.10;;;11.40;99.90;;;;;;5049588;28;20647;-72
2023/03/27 08:57:27;;;;;;;2.43;1.20;;;11.10;99.90;;;;;;5052069;28;20460;-72
2023/03/27 08:59:58;;;;;;;3.50;1.20;;;11.60;99.90;;;;;;5049784;28;20555;-72
2023/03/27 09:02:36;;;;;;;1.00;0.80;;;10.70;99.90;;;;;;5050128;28;20979;-72
2023/03/27 09:05:08;;;;;;;1.47;1.37;;;10.50;99.90;;;;;;5049356;28;20470;-72
2023/03/27 09:07:41;;;;;;;1.40;0.87;;;11.00;99.90;;;;;;5049603;28;20993;-72
2023/03/27 09:10:18;;;;;;;1.43;0.97;;;11.00;99.90;;;;;;5049627;28;20432;-72
2023/03/27 09:12:57;;;;;;;1.30;0.90;;;11.70;99.90;;;;;;5049598;28;20436;-72
2023/03/27 09:15:27;;;;;;;3.33;1.57;;;12.70;99.90;;;;;;5050131;28;20435;-72
2023/03/27 09:18:00;;;;;;;3.40;1.33;;;13.30;99.90;;;;;;5052606;28;20661;-72
2023/03/27 09:20:34;;;;;;;1.50;1.27;;;13.50;99.90;;;;;;5052803;28;20467;-72
2023/03/27 09:23:09;;;;;;;1.30;1.10;;;13.40;99.90;;;;;;5053423;28;20420;-72
2023/03/27 09:25:40;;;;;;;5.50;1.37;;;13.30;99.90;;;;;;5053843;28;20457;-72
2023/03/27 09:28:20;;;;;;;2.03;1.10;;;12.60;99.90;;;;;;5053006;28;20923;-72
2023/03/27 09:30:47;;;;;;;1.87;1.50;;;11.30;99.90;;;;;;5053361;28;20419;-72
2023/03/27 09:33:14;;;;;;;3.00;2.30;;;10.10;99.90;;;;;;5054080;28;20485;-72
2023/03/27 09:35:42;;;;;;;3.03;1.30;;;11.10;99.90;;;;;;5053578;28;20463;-72
2023/03/27 09:38:29;;;;;;;2.67;2.17;;;12.20;99.90;;;;;;5053224;28;20542;-72
2023/03/27 09:41:02;;;;;;;4.13;2.23;;;11.80;99.90;;;;;;5064020;28;20479;-72
2023/03/27 09:43:36;;;;;;;1.73;1.10;;;10.90;99.90;;;;;;5056757;28;20931;-72
2023/03/27 09:46:03;;;;;;;1.70;1.03;;;10.80;99.90;;;;;;5053639;28;20431;-72
2023/03/27 09:48:36;;;;;;;1.73;0.87;;;11.10;99.90;;;;;;5057527;28;20531;-72
2023/03/27 09:51:04;;;;;;;1.50;1.00;;;12.30;99.90;;;;;;5059810;28;20459;-72
2023/03/27 09:53:31;;;;;;;1.40;1.07;;;11.50;99.90;;;;;;5052735;28;20447;-72
2023/03/27 09:56:03;;;;;;;1.60;1.00;;;11.90;99.90;;;;;;5052692;28;20476;-73
2023/03/27 09:58:35;;;;;;;3.33;1.17;;;12.00;99.90;;;;;;5052631;28;20432;-72
2023/03/27 10:01:18;;;;;;;4.13;1.10;;;11.90;99.90;;;;;;5052343;28;20499;-72
2023/03/27 10:03:51;;;;;;;1.30;1.00;;;11.60;99.90;;;;;;5052464;28;20505;-72
2023/03/27 10:06:26;;;;;;;1.60;1.00;;;12.20;99.90;;;;;;5052217;28;21021;-71
2023/03/27 10:08:55;;;;;;;2.80;0.90;;;12.30;99.90;;;;;;5052249;28;20484;-71
2023/03/27 10:11:27;;;;;;;1.37;0.93;;;13.00;99.30;;;;;;5055291;28;20471;-71
2023/03/27 10:13:55;;;;;;;1.70;1.20;;;12.40;99.00;;;;;;5053219;28;20959;-71
2023/03/27 10:16:23;;;;;;;1.40;1.00;;;13.20;99.70;;;;;;5052456;28;20554;-71
2023/03/27 10:18:53;;;;;;;1.10;0.70;;;13.00;96.40;;;;;;5051963;28;20447;-71
2023/03/27 10:21:28;;;;;;;2.37;1.07;;;11.20;97.80;;;;;;5052354;28;20517;-71
2023/03/27 10:24:01;;;;;;;1.73;0.87;;;10.50;99.90;;;;;;5052572;28;20797;-71
2023/03/27 10:26:32;;;;;;;1.10;0.80;;;10.20;99.90;;;;;;5051682;28;20468;-71
2023/03/27 10:29:01;;;;;;;4.40;1.40;;;10.10;99.90;;;;;;5053374;28;20894;-72
2023/03/27 10:31:31;;;;;;;1.20;0.80;;;11.30;99.90;;;;;;5052903;28;20443;-72
2023/03/27 10:34:00;;;;;;;2.03;1.00;;;12.60;99.90;;;;;;5064690;28;20467;-72
2023/03/27 10:36:32;;;;;;;1.20;0.80;;;12.20;98.80;;;;;;5055024;28;20555;-72
2023/03/27 10:39:04;;;;;;;2.30;1.90;;;11.10;99.90;;;;;;5052670;28;20542;-72
2023/03/27 10:41:36;;;;;;;1.87;1.40;;;10.80;99.90;;;;;;5052506;28;20479;-72
2023/03/27 10:44:12;;;;;;;2.63;1.33;;;11.00;99.90;;;;;;5051913;28;20491;-72
2023/03/27 10:46:40;;;;;;;1.37;0.93;;;11.90;99.90;;;;;;5052772;28;20487;-71
2023/03/27 10:49:23;;;;;;;2.13;0.80;;;13.00;99.90;;;;;;5052323;28;20445;-71
2023/03/27 10:51:53;;;;;;;1.57;1.47;;;14.00;97.30;;;;;;5051323;28;20404;-71
2023/03/27 10:54:39;;;;;;;2.20;1.03;;;15.30;96.20;;;;;;5054656;28;20496;-72
2023/03/27 10:57:14;;;;;;;1.10;0.73;;;14.50;94.00;;;;;;5051591;28;20487;-71
2023/03/27 10:59:51;;;;;;;1.87;1.30;;;13.00;94.40;;;;;;5052048;28;20554;-71
2023/03/27 11:02:22;;;;;;;1.20;0.80;;;12.20;97.30;;;;;;5062276;28;20459;-72
2023/03/27 11:04:53;;;;;;;1.10;0.70;;;11.90;97.70;;;;;;5051893;28;20794;-71
2023/03/27 11:07:27;;;;;;;2.50;1.67;;;11.90;94.60;;;;;;5051299;28;20471;-71
2023/03/27 11:10:01;;;;;;;1.73;1.10;;;12.60;96.20;;;;;;5051401;28;20982;-71
2023/03/27 11:12:33;;;;;;;2.47;0.97;;;12.50;95.50;;;;;;5051444;28;20789;-71
2023/03/27 11:15:06;;;;;;;5.60;2.07;;;12.00;96.10;;;;;;5051160;28;20424;-71
2023/03/27 11:17:39;;;;;;;1.87;1.10;;;11.50;96.70;;;;;;5051116;28;20521;-71
2023/03/27 11:20:15;;;;;;;1.37;1.00;;;11.30;97.80;;;;;;5052227;28;20839;-71
2023/03/27 11:22:46;;;;;;;4.43;0.83;;;12.50;97.40;;;;;;5053395;28;20494;-71
2023/03/27 11:25:21;;;;;;;1.20;0.80;;;14.30;92.90;;;;;;5051657;28;20459;-71
2023/03/27 11:28:00;;;;;;;1.20;0.90;;;14.90;89.80;;;;;;5065201;28;20463;-71
2023/03/27 11:30:38;;;;;;;1.20;0.77;;;13.70;88.70;;;;;;5052083;28;20841;-71
2023/03/27 11:33:16;;;;;;;1.60;0.90;;;12.30;90.10;;;;;;5051176;28;20441;-71
2023/03/27 11:35:48;;;;;;;2.37;0.90;;;11.20;91.60;;;;;;5050380;28;20427;-71
2023/03/27 11:38:21;;;;;;;22.13;1.60;;;10.20;92.80;;;;;;5049679;28;20494;-74
2023/03/27 11:40:50;;;;;;;3.03;1.10;;;9.20;98.20;;;;;;5050217;28;21000;-71
2023/03/27 11:43:19;;;;;;;1.20;0.77;;;8.90;99.90;;;;;;5050653;28;20455;-73
2023/03/27 11:45:53;;;;;;;9.00;0.90;;;8.70;99.90;;;;;;5050198;28;20913;-73
2023/03/27 11:48:41;;;;;;;1.23;0.93;;;8.50;99.90;;;;;;5050511;28;20809;-71
2023/03/27 11:51:15;;;;;;;1.87;1.07;;;9.30;99.90;;;;;;5050024;28;20522;-71
2023/03/27 11:54:05;;;;;;;6.40;0.90;;;10.90;99.90;;;;;;5050241;28;20837;-71
2023/03/27 11:56:45;;;;;;;2.03;0.73;;;12.10;99.90;;;;;;5051291;28;20514;-71
2023/03/27 11:59:48;;;;;;;2.67;1.00;;;13.30;99.90;;;;;;5051163;28;20431;-71
2023/03/27 12:02:39;;;;;;;2.07;1.33;;;13.20;99.90;;;;;;5049942;28;20470;-72
2023/03/27 12:05:13;;;;;;;1.43;1.10;;;12.90;99.90;;;;;;5050879;28;20435;-71
2023/03/27 12:07:49;;;;;;;2.47;0.80;;;13.10;98.30;;;;;;5050421;28;20489;-71
2023/03/27 12:10:30;;;;;;;1.20;0.80;;;13.90;96.40;;;;;;5050434;28;20844;-71
2023/03/27 12:13:30;;;;;;;1.10;0.70;;;14.40;94.10;;;;;;5055100;28;20428;-71
2023/03/27 12:16:08;;;;;;;1.57;0.90;;;15.00;94.60;;;;;;5048559;28;20479;-72
2023/03/27 12:18:48;;;;;;;1.97;0.80;;;15.10;93.10;;;;;;5051960;28;20430;-71
2023/03/27 12:21:25;;;;;;;1.37;0.97;;;15.00;91.50;;;;;;5065774;28;20896;-72
2023/03/27 12:24:07;;;;;;;1.23;1.10;;;14.30;92.30;;;;;;5050198;28;20522;-72
2023/03/27 12:27:04;;;;;;;2.60;0.83;;;14.30;94.60;;;;;;5049859;28;20616;-72
2023/03/27 12:29:50;;;;;;;2.03;0.80;;;14.60;93.60;;;;;;5050365;28;20428;-72
2023/03/27 12:32:32;;;;;;;1.00;0.80;;;14.70;93.00;;;;;;5049962;28;20419;-72
2023/03/27 12:35:05;;;;;;;1.47;0.90;;;14.60;91.60;;;;;;5050212;28;20440;-72
2023/03/27 12:37:38;;;;;;;1.10;0.80;;;14.90;90.50;;;;;;5050459;28;21049;-72
2023/03/27 12:40:24;;;;;;;1.20;0.90;;;14.20;89.50;;;;;;5049673;28;20906;-72
2023/03/27 12:42:53;;;;;;;1.40;0.80;;;13.80;89.40;;;;;;5050065;28;20428;-72
2023/03/27 12:45:22;;;;;;;2.17;0.90;;;12.70;91.30;;;;;;5049641;28;20959;-71
2023/03/27 12:48:19;;;;;;;1.20;0.93;;;11.60;93.90;;;;;;5049771;28;20520;-71
2023/03/27 12:50:56;;;;;;;1.20;0.97;;;10.40;99.90;;;;;;5009939;28;20458;-72
2023/03/27 12:53:49;;;;;;;1.27;1.00;;;9.50;99.90;;;;;;5046417;28;20432;-71
2023/03/27 12:56:36;;;;;;;1.37;1.07;;;9.20;99.90;;;;;;5055491;28;20463;-72
2023/03/27 12:59:14;;;;;;;1.20;0.80;;;9.00;99.90;;;;;;5053752;28;20440;-71
2023/03/27 13:02:29;;;;;;;1.17;1.00;;;9.30;99.90;;;;;;5053283;28;20477;-72
2023/03/27 13:05:21;;;;;;;1.10;0.70;;;10.80;99.90;;;;;;5052649;28;20451;-73
2023/03/27 13:07:59;;;;;;;1.40;0.73;;;12.80;99.90;;;;;;5055134;28;20915;-72
2023/03/27 13:10:45;;;;;;;3.00;1.30;;;13.80;99.90;;;;;;5053618;28;20426;-72
2023/03/27 13:13:46;;;;;;;5.80;1.80;;;13.60;99.90;;;;;;5060837;28;20454;-72
2023/03/27 13:16:25;;;;;;;4.03;1.00;;;13.70;99.90;;;;;;5059281;28;20471;-72
2023/03/27 13:19:18;;;;;;;5.13;1.13;;;13.90;99.90;;;;;;5054201;28;20764;-73